»·PEaware :: SWA343 KSLC-KSNA

SWA343 :: KSLC-KSNA

FLIGHT INFORMATION

Flight Status: Arrived
Operator:
Southwest Airlines
More flights by this operator :: More flights under this callsign
Pilot: Hyatt B. (30410)
Aircraft: BOEING 737-700
(B737)
More flights by this aircraft type
Origin: KSLC Salt Lake City Intl
United States
Destination: KSNA John Wayne-Orange Co
United States
More flights between these airports :: More routes between these airports
Route: ZIONZ1 EHK BLD Q114 NATEE DSNEE4
File this flight plan on PilotEdge
Remarks:
Altitude:
(Current/Filed)
38,000ft
Speed:
(Current/Filed)
430kts
Departed: 23-Aug-20 08:35 AM
Arrived: 23-Aug-20 10:06 AM
Distance/Time
Traveled:
511nm/1:30
Distance/Time
To Go:
Arrived

Flight Plot

Page will automatically refresh every two minutes.

Flight plan parsing failed; only flown route is shown


Map Options




Map Legend


Flown Route
Filed Route
Departure Airport
Arrival Airport
Navaid (VOR, NDB)
Fix

Horizontal Profiles

Position Reports

Time Latitude Longitude Heading Altitude Ground
Speed
23-Aug-20 08:12 40.787356 -111.977796 269 4227ft 0kts
23-Aug-20 08:13 40.787356 -111.977796 269 4227ft 0kts
23-Aug-20 08:14 40.787356 -111.977796 269 4227ft 0kts
23-Aug-20 08:15 40.787356 -111.977796 269 4227ft 0kts
23-Aug-20 08:16 40.787356 -111.977796 269 4227ft 0kts
23-Aug-20 08:17 40.787356 -111.977796 269 4227ft 0kts
23-Aug-20 08:18 40.787356 -111.977796 269 4227ft 0kts
23-Aug-20 08:19 40.787356 -111.977796 269 4227ft 0kts
23-Aug-20 08:20 40.787356 -111.977796 269 4227ft 0kts
23-Aug-20 08:21 40.787356 -111.977796 269 4227ft 0kts
23-Aug-20 08:22 40.787356 -111.977796 269 4227ft 0kts
23-Aug-20 08:23 40.787356 -111.977796 269 4227ft 0kts
23-Aug-20 08:24 40.787356 -111.977680 269 4227ft 2kts
23-Aug-20 08:25 40.787303 -111.976896 308 4227ft 2kts
23-Aug-20 08:26 40.787017 -111.976717 355 4227ft 0kts
23-Aug-20 08:27 40.787017 -111.976717 355 4227ft 0kts
23-Aug-20 08:28 40.787045 -111.976720 354 4227ft 1kts
23-Aug-20 08:29 40.790117 -111.977106 355 4227ft 12kts
23-Aug-20 08:30 40.794621 -111.977638 355 4227ft 23kts
23-Aug-20 08:31 40.800858 -111.978345 355 4230ft 21kts
23-Aug-20 08:32 40.806504 -111.979008 355 4230ft 10kts
23-Aug-20 08:33 40.807333 -111.978648 61 4230ft 3kts
23-Aug-20 08:34 40.805809 -111.976739 175 4230ft 44kts
23-Aug-20 08:35 40.760983 -111.972414 177 5046ft 210kts
23-Aug-20 08:36 40.695127 -111.967981 177 7801ft 259kts
23-Aug-20 08:37 40.621916 -111.962964 178 10984ft 272kts
23-Aug-20 08:38 40.537371 -111.957235 178 13175ft 335kts
23-Aug-20 08:39 40.441372 -111.950628 178 16442ft 352kts
23-Aug-20 08:40 40.341908 -111.943758 179 19154ft 365kts
23-Aug-20 08:41 40.238993 -111.942751 189 21501ft 374kts
23-Aug-20 08:42 40.134683 -111.959848 189 23579ft 385kts
23-Aug-20 08:43 40.027046 -111.975614 189 25490ft 395kts
23-Aug-20 08:44 39.916248 -111.991833 190 27190ft 406kts
23-Aug-20 08:45 39.802648 -112.008417 190 28757ft 415kts
23-Aug-20 08:46 39.686162 -112.025346 190 30180ft 424kts
23-Aug-20 08:47 39.568169 -112.042430 190 31644ft 428kts
23-Aug-20 08:48 39.449933 -112.059457 191 33226ft 425kts
23-Aug-20 08:49 39.333052 -112.076025 191 34655ft 422kts
23-Aug-20 08:50 39.217831 -112.092361 191 35962ft 418kts
23-Aug-20 08:51 39.106511 -112.126631 209 37016ft 405kts
23-Aug-20 08:52 39.008217 -112.196109 213 37839ft 404kts
23-Aug-20 08:53 38.909013 -112.268373 213 38192ft 421kts
23-Aug-20 08:54 38.806538 -112.342674 212 38188ft 427kts
23-Aug-20 08:55 38.703605 -112.417099 212 38190ft 426kts
23-Aug-20 08:56 38.600610 -112.491316 212 38189ft 426kts
23-Aug-20 08:57 38.497532 -112.565345 212 38254ft 425kts
23-Aug-20 08:58 38.394220 -112.639303 212 38355ft 427kts
23-Aug-20 08:59 38.292729 -112.711688 212 38326ft 427kts
23-Aug-20 09:00 38.189078 -112.785401 212 38281ft 426kts
23-Aug-20 09:01 38.085788 -112.858612 212 38265ft 424kts
23-Aug-20 09:02 37.983479 -112.930892 211 38264ft 421kts
23-Aug-20 09:03 37.882827 -113.001777 211 38266ft 418kts
23-Aug-20 09:04 37.782347 -113.074403 217 38268ft 414kts
23-Aug-20 09:05 37.692902 -113.165734 221 38265ft 414kts
23-Aug-20 09:06 37.603742 -113.257545 221 38264ft 413kts
23-Aug-20 09:07 37.515012 -113.348608 221 38245ft 414kts
23-Aug-20 09:08 37.425449 -113.440231 221 38161ft 414kts
23-Aug-20 09:09 37.336163 -113.531286 221 38098ft 413kts
23-Aug-20 09:10 37.247046 -113.621881 221 38096ft 414kts
23-Aug-20 09:11 37.159806 -113.710251 220 38101ft 414kts
23-Aug-20 09:12 37.070315 -113.800662 220 38100ft 416kts
23-Aug-20 09:13 36.979152 -113.892231 220 38100ft 423kts
23-Aug-20 09:14 36.889354 -113.982647 219 38100ft 425kts
23-Aug-20 09:15 36.797210 -114.074860 219 38101ft 424kts
23-Aug-20 09:16 36.704780 -114.167073 219 38100ft 424kts
23-Aug-20 09:17 36.612765 -114.258582 219 38087ft 424kts
23-Aug-20 09:18 36.520607 -114.349945 219 38015ft 424kts
23-Aug-20 09:19 36.428188 -114.441282 219 37991ft 424kts
23-Aug-20 09:20 36.336027 -114.532080 219 37998ft 424kts
23-Aug-20 09:21 36.243559 -114.622897 219 37997ft 424kts
23-Aug-20 09:22 36.153305 -114.711244 219 38008ft 424kts
23-Aug-20 09:23 36.061032 -114.801311 219 38005ft 424kts
23-Aug-20 09:24 35.971660 -114.895999 228 38010ft 423kts
23-Aug-20 09:25 35.895316 -115.001076 228 38012ft 422kts
23-Aug-20 09:26 35.816750 -115.108190 227 38030ft 418kts
23-Aug-20 09:27 35.738842 -115.214093 226 38046ft 418kts
23-Aug-20 09:28 35.660680 -115.320007 226 38046ft 418kts
23-Aug-20 09:29 35.582143 -115.425807 226 38045ft 418kts
23-Aug-20 09:30 35.504058 -115.530906 226 38044ft 418kts
23-Aug-20 09:31 35.425614 -115.636238 226 38043ft 418kts
23-Aug-20 09:32 35.347189 -115.741168 226 38042ft 418kts
23-Aug-20 09:33 35.268537 -115.846123 226 38033ft 418kts
23-Aug-20 09:34 35.189251 -115.949237 224 38025ft 417kts
23-Aug-20 09:35 35.108449 -116.050746 224 38025ft 417kts
23-Aug-20 09:36 35.027888 -116.152105 224 38023ft 417kts
23-Aug-20 09:37 34.946945 -116.253626 224 37846ft 419kts
23-Aug-20 09:38 34.867002 -116.353769 224 36208ft 421kts
23-Aug-20 09:39 34.786626 -116.456240 224 34083ft 425kts
23-Aug-20 09:40 34.702690 -116.562912 224 29436ft 439kts
23-Aug-20 09:41 34.613190 -116.653281 217 25053ft 425kts
23-Aug-20 09:42 34.525610 -116.738819 217 22032ft 381kts
23-Aug-20 09:44 34.450472 -116.821964 222 19763ft 359kts
23-Aug-20 09:45 34.379297 -116.904636 221 17534ft 351kts
23-Aug-20 09:46 34.309538 -116.985204 221 15323ft 344kts
23-Aug-20 09:47 34.235920 -117.056162 208 14018ft 339kts
23-Aug-20 09:48 34.155397 -117.111213 202 13054ft 332kts
23-Aug-20 09:49 34.070179 -117.156759 201 13034ft 335kts
23-Aug-20 09:50 33.990110 -117.209949 220 11821ft 330kts
23-Aug-20 09:51 33.929329 -117.290073 227 10548ft 332kts
23-Aug-20 09:52 33.873805 -117.368818 227 9316ft 285kts
23-Aug-20 09:53 33.826677 -117.435485 230 8249ft 243kts
23-Aug-20 09:54 33.800822 -117.501970 248 7681ft 194kts
23-Aug-20 09:55 33.809090 -117.560704 312 6804ft 186kts
23-Aug-20 09:56 33.842827 -117.607072 313 5810ft 182kts
23-Aug-20 09:57 33.875529 -117.651882 312 5019ft 176kts
23-Aug-20 09:58 33.906676 -117.694689 308 4976ft 167kts
23-Aug-20 09:59 33.887681 -117.734530 205 4766ft 157kts
23-Aug-20 10:00 33.849770 -117.758257 205 3825ft 152kts
23-Aug-20 10:01 33.813191 -117.781565 205 2945ft 146kts
23-Aug-20 10:02 33.777508 -117.804250 205 2176ft 141kts
23-Aug-20 10:02 33.749536 -117.821994 206 1554ft 136kts
23-Aug-20 10:04 33.710844 -117.846545 207 703ft 134kts
23-Aug-20 10:04 33.683574 -117.863827 207 132ft 133kts
23-Aug-20 10:05 33.671214 -117.871661 207 64ft 21kts
23-Aug-20 10:07 33.669124 -117.871519 117 64ft 8kts
23-Aug-20 10:07 33.670946 -117.869047 40 64ft 15kts
23-Aug-20 10:08 33.674717 -117.866086 27 64ft 19kts
23-Aug-20 10:09 33.675773 -117.864772 112 64ft 3kts
23-Aug-20 10:10 33.675731 -117.864669 117 64ft 0kts
23-Aug-20 10:11 33.675731 -117.864669 117 64ft 0kts

Navigation Log

Ident Type
Flight plan parsing failed, navigation log unavailable